createdAt,value
2019-06-01T00:02:13.030Z,81.00
2019-06-01T00:04:42.978Z,80.60
2019-06-01T00:07:12.142Z,80.50
2019-06-01T00:09:41.029Z,80.50
2019-06-01T00:12:09.939Z,80.20
2019-06-01T00:14:39.666Z,80.40
2019-06-01T00:17:09.169Z,80.50
2019-06-01T00:19:37.886Z,80.80
2019-06-01T00:22:06.595Z,81.70
2019-06-01T00:24:35.371Z,81.60
2019-06-01T00:27:04.327Z,81.40
2019-06-01T00:29:33.460Z,81.20
2019-06-01T00:32:02.539Z,81.20
2019-06-01T00:34:31.513Z,81.60
2019-06-01T00:37:00.293Z,81.80
2019-06-01T00:39:29.068Z,81.40
2019-06-01T00:41:57.792Z,81.30
2019-06-01T00:44:26.569Z,80.90
2019-06-01T00:46:55.277Z,81.00
2019-06-01T00:49:24.071Z,80.90
2019-06-01T00:51:53.768Z,81.20
2019-06-01T00:54:22.708Z,80.80
2019-06-01T00:56:51.736Z,80.80
2019-06-01T00:59:20.729Z,81.30
2019-06-01T01:01:50.099Z,81.30
2019-06-01T01:04:19.107Z,81.70
2019-06-01T01:06:49.188Z,81.70
2019-06-01T01:09:18.684Z,82.20
2019-06-01T01:11:47.457Z,82.00
2019-06-01T01:14:16.269Z,81.40
2019-06-01T01:16:45.448Z,81.10
2019-06-01T01:19:16.267Z,80.80
2019-06-01T01:21:45.947Z,80.80
2019-06-01T01:24:15.230Z,80.80
2019-06-01T01:26:43.955Z,81.40
2019-06-01T01:29:12.660Z,81.30
2019-06-01T01:31:41.367Z,81.20
2019-06-01T01:34:10.434Z,81.00
2019-06-01T01:36:39.206Z,80.80
2019-06-01T01:39:08.314Z,81.40
2019-06-01T01:41:37.100Z,81.20
2019-06-01T01:44:06.039Z,81.60
2019-06-01T01:46:34.789Z,81.90
2019-06-01T01:49:03.675Z,82.10
2019-06-01T01:51:32.698Z,81.80
2019-06-01T01:54:04.515Z,81.70
2019-06-01T01:56:32.832Z,82.00
2019-06-01T01:59:04.122Z,81.90
2019-06-01T02:01:32.101Z,82.30
2019-06-01T02:04:01.121Z,82.00
2019-06-01T02:06:29.874Z,82.20
2019-06-01T02:08:59.361Z,82.40
2019-06-01T02:11:28.470Z,82.40
2019-06-01T02:13:57.785Z,82.50
2019-06-01T02:16:26.683Z,82.10
2019-06-01T02:18:55.982Z,82.00
2019-06-01T02:21:26.294Z,82.00
2019-06-01T02:23:55.286Z,82.80
2019-06-01T02:26:24.006Z,83.40
2019-06-01T02:28:53.185Z,83.70
2019-06-01T02:31:39.867Z,83.30
2019-06-01T02:33:53.774Z,83.70
2019-06-01T02:36:23.174Z,83.30
2019-06-01T02:38:52.153Z,83.30
2019-06-01T02:41:20.934Z,82.90
2019-06-01T02:43:49.731Z,83.40
2019-06-01T02:46:18.576Z,83.50
2019-06-01T02:48:47.305Z,82.90
2019-06-01T02:51:16.021Z,82.80
2019-06-01T02:53:44.734Z,82.90
2019-06-01T02:56:13.590Z,84.10
2019-06-01T02:58:42.310Z,84.30
2019-06-01T03:01:33.323Z,83.90
2019-06-01T03:04:05.344Z,83.70
2019-06-01T03:06:36.338Z,84.40
2019-06-01T03:09:08.983Z,83.70
2019-06-01T03:11:39.695Z,83.70
2019-06-01T03:14:09.950Z,83.70
2019-06-01T03:16:40.457Z,83.50
2019-06-01T03:19:09.639Z,83.50
2019-06-01T03:21:38.967Z,83.50
2019-06-01T03:24:11.780Z,83.00
2019-06-01T03:26:43.975Z,83.10
2019-06-01T03:29:20.281Z,83.30
2019-06-01T03:31:49.611Z,84.00
2019-06-01T03:34:18.657Z,84.40
2019-06-01T03:36:47.627Z,84.10
2019-06-01T03:39:16.611Z,83.50
2019-06-01T03:41:45.527Z,83.40
2019-06-01T03:44:14.401Z,83.20
2019-06-01T03:46:43.174Z,83.00
2019-06-01T03:49:12.058Z,83.10
2019-06-01T03:51:40.872Z,82.90
2019-06-01T03:54:10.104Z,82.80
2019-06-01T03:56:39.305Z,82.70
2019-06-01T03:59:09.322Z,82.60
2019-06-01T04:01:38.272Z,82.80
2019-06-01T04:04:07.238Z,82.60
2019-06-01T04:06:36.148Z,82.50
2019-06-01T04:09:07.787Z,82.50
2019-06-01T04:11:36.818Z,82.50
2019-06-01T04:14:07.358Z,83.10
2019-06-01T04:16:36.784Z,82.60
2019-06-01T04:19:06.066Z,82.60
2019-06-01T04:21:35.028Z,82.60
2019-06-01T04:24:04.033Z,82.80
2019-06-01T04:26:32.859Z,82.80
2019-06-01T04:29:02.289Z,83.10
2019-06-01T04:31:31.451Z,83.40
2019-06-01T04:34:00.262Z,82.90
2019-06-01T04:36:29.060Z,83.00
2019-06-01T04:38:58.886Z,83.00
2019-06-01T04:41:27.609Z,82.90
2019-06-01T04:43:56.604Z,82.80
2019-06-01T04:46:25.731Z,82.60
2019-06-01T04:48:54.473Z,82.50
2019-06-01T04:51:24.456Z,82.60
2019-06-01T04:53:53.477Z,82.40
2019-06-01T04:56:22.193Z,82.30
2019-06-01T04:58:50.985Z,81.90
2019-06-01T05:01:20.072Z,81.80
2019-06-01T05:03:52.155Z,81.90
2019-06-01T05:06:21.228Z,81.50
2019-06-01T05:08:50.200Z,81.30
2019-06-01T05:11:18.985Z,81.00
2019-06-01T05:13:48.255Z,81.00
2019-06-01T05:16:17.422Z,81.80
2019-06-01T05:18:46.899Z,83.00
2019-06-01T05:21:16.829Z,83.80
2019-06-01T05:23:46.438Z,85.30
2019-06-01T05:26:15.472Z,84.60
2019-06-01T05:28:51.704Z,84.30
2019-06-01T05:31:25.107Z,83.80
2019-06-01T05:33:51.842Z,83.50
2019-06-01T05:36:21.103Z,83.00
2019-06-01T05:38:50.245Z,82.80
2019-06-01T05:41:19.913Z,82.60
2019-06-01T05:43:48.872Z,82.40
2019-06-01T05:46:18.065Z,82.30
2019-06-01T05:48:47.362Z,82.70
2019-06-01T05:51:18.435Z,83.20
2019-06-01T05:53:46.978Z,84.50
2019-06-01T05:56:16.850Z,84.10
2019-06-01T05:58:47.496Z,83.90
2019-06-01T06:01:16.478Z,83.70
2019-06-01T06:03:45.370Z,84.40
2019-06-01T06:06:15.734Z,85.10
2019-06-01T06:08:44.652Z,85.00
2019-06-01T06:11:13.410Z,84.70
2019-06-01T06:13:42.652Z,84.30
2019-06-01T06:16:11.736Z,84.10
2019-06-01T06:18:40.495Z,83.50
2019-06-01T06:21:09.366Z,83.40
2019-06-01T06:23:38.084Z,83.30
2019-06-01T06:26:07.253Z,83.00
2019-06-01T06:28:36.770Z,82.30
2019-06-01T06:31:05.551Z,82.30
2019-06-01T06:33:36.837Z,81.10
2019-06-01T06:36:06.517Z,81.00
2019-06-01T06:38:35.621Z,81.50
2019-06-01T06:41:04.329Z,80.70
2019-06-01T06:43:33.458Z,80.40
2019-06-01T06:46:02.226Z,82.10
2019-06-01T06:48:32.833Z,81.40
2019-06-01T06:51:02.021Z,79.70
2019-06-01T06:53:35.105Z,80.30
2019-06-01T06:56:02.471Z,79.80
2019-06-01T06:58:31.531Z,78.20
2019-06-01T07:01:00.324Z,80.00
2019-06-01T07:03:29.153Z,80.10
2019-06-01T07:06:01.086Z,80.20
2019-06-01T07:08:29.978Z,79.30
2019-06-01T07:10:58.940Z,80.30
2019-06-01T07:13:27.749Z,80.30
2019-06-01T07:15:56.567Z,79.50
2019-06-01T07:18:25.788Z,80.30
2019-06-01T07:20:56.929Z,78.80
2019-06-01T07:23:25.965Z,78.50
2019-06-01T07:25:54.780Z,78.00
2019-06-01T07:28:24.122Z,77.60
2019-06-01T07:30:53.039Z,78.10
2019-06-01T07:33:22.385Z,78.50
2019-06-01T07:35:51.228Z,76.70
2019-06-01T07:38:20.262Z,77.40
2019-06-01T07:40:49.612Z,75.50
2019-06-01T07:43:20.508Z,77.00
2019-06-01T07:45:48.931Z,76.90
2019-06-01T07:48:17.862Z,77.10
2019-06-01T07:50:46.845Z,77.20
2019-06-01T07:53:15.555Z,77.30
2019-06-01T07:55:44.310Z,76.50
2019-06-01T07:58:13.346Z,75.90
2019-06-01T08:00:42.077Z,75.60
2019-06-01T08:03:11.142Z,73.30
2019-06-01T08:05:43.460Z,74.00
2019-06-01T08:08:12.522Z,74.60
2019-06-01T08:10:41.295Z,75.70
2019-06-01T08:13:10.038Z,76.20
2019-06-01T08:15:39.170Z,73.50
2019-06-01T08:18:08.077Z,73.90
2019-06-01T08:20:36.846Z,73.90
2019-06-01T08:23:05.584Z,74.60
2019-06-01T08:25:34.878Z,74.90
2019-06-01T08:28:03.900Z,74.20
2019-06-01T08:30:32.777Z,72.40
2019-06-01T08:33:02.001Z,72.00
2019-06-01T08:35:31.188Z,72.00
2019-06-01T08:38:00.492Z,71.70
2019-06-01T08:40:29.508Z,69.80
2019-06-01T08:42:58.761Z,69.10
2019-06-01T08:45:27.722Z,71.00
2019-06-01T08:47:56.543Z,71.60
2019-06-01T08:50:25.746Z,71.20
2019-06-01T08:52:54.709Z,71.20
2019-06-01T08:55:24.021Z,70.90
2019-06-01T08:57:52.870Z,66.70
2019-06-01T09:00:21.861Z,68.50
2019-06-01T09:02:50.614Z,69.40
2019-06-01T09:05:24.282Z,70.70
2019-06-01T09:07:51.106Z,69.50
2019-06-01T09:10:20.107Z,67.70
2019-06-01T09:12:48.918Z,70.00
2019-06-01T09:15:18.032Z,68.90
2019-06-01T09:17:46.790Z,70.20
2019-06-01T09:20:15.869Z,69.40
2019-06-01T09:22:48.036Z,69.20
2019-06-01T09:25:16.495Z,68.10
2019-06-01T09:27:45.265Z,68.60
2019-06-01T09:30:15.459Z,69.20
2019-06-01T09:32:44.235Z,68.40
2019-06-01T09:35:13.421Z,67.90
2019-06-01T09:37:45.660Z,67.30
2019-06-01T09:40:13.014Z,67.80
2019-06-01T09:42:42.004Z,66.80
2019-06-01T09:45:13.118Z,64.60
2019-06-01T09:47:41.850Z,63.50
2019-06-01T09:50:11.269Z,65.30
2019-06-01T09:52:40.315Z,66.10
2019-06-01T09:55:09.270Z,66.50
2019-06-01T09:57:38.415Z,65.10
2019-06-01T10:00:08.638Z,66.40
2019-06-01T10:02:38.308Z,62.50
2019-06-01T10:05:07.551Z,65.70
2019-06-01T10:07:37.000Z,67.30
2019-06-01T10:10:08.196Z,67.50
2019-06-01T10:12:38.100Z,63.50
2019-06-01T10:15:07.129Z,65.60
2019-06-01T10:17:37.099Z,65.80
2019-06-01T10:20:06.753Z,64.30
2019-06-01T10:22:35.543Z,63.60
2019-06-01T10:25:04.977Z,62.40
2019-06-01T10:27:34.516Z,62.80
2019-06-01T10:30:03.566Z,61.60
2019-06-01T10:32:34.126Z,64.20
2019-06-01T10:35:03.391Z,63.20
2019-06-01T10:37:33.349Z,63.40
2019-06-01T10:40:03.859Z,63.70
2019-06-01T10:42:34.413Z,63.10
2019-06-01T10:45:03.777Z,60.90
2019-06-01T10:47:33.762Z,63.60
2019-06-01T10:50:02.728Z,62.90
2019-06-01T10:52:31.972Z,62.50
2019-06-01T10:55:01.061Z,60.60
2019-06-01T10:57:30.117Z,60.10
2019-06-01T10:59:58.929Z,60.00
2019-06-01T11:02:27.655Z,60.70
2019-06-01T11:04:56.727Z,59.50
2019-06-01T11:07:25.465Z,59.80
2019-06-01T11:09:54.250Z,59.00
2019-06-01T11:12:25.027Z,59.10
2019-06-01T11:14:55.153Z,57.40
2019-06-01T11:17:24.251Z,59.70
2019-06-01T11:19:53.005Z,59.70
2019-06-01T11:22:21.740Z,59.10
2019-06-01T11:24:50.530Z,59.10
2019-06-01T11:27:19.492Z,59.70
2019-06-01T11:29:51.414Z,57.50
2019-06-01T11:32:19.353Z,59.30
2019-06-01T11:34:48.074Z,58.30
2019-06-01T11:37:16.988Z,55.00
2019-06-01T11:39:45.772Z,57.20
2019-06-01T11:42:14.834Z,57.60
2019-06-01T11:44:44.808Z,57.60
2019-06-01T11:47:13.894Z,59.40
2019-06-01T11:49:42.911Z,61.20
2019-06-01T11:52:11.731Z,57.70
2019-06-01T11:54:41.352Z,59.10
2019-06-01T11:57:10.093Z,58.20
2019-06-01T11:59:39.441Z,57.80
2019-06-01T12:02:08.401Z,57.20
2019-06-01T12:04:37.843Z,56.20
2019-06-01T12:07:17.080Z,58.40
2019-06-01T12:09:37.709Z,57.70
2019-06-01T12:12:06.586Z,57.10
2019-06-01T12:14:38.403Z,52.40
2019-06-01T12:17:07.663Z,55.60
2019-06-01T12:19:36.549Z,57.40
2019-06-01T12:22:05.346Z,55.50
2019-06-01T12:24:34.145Z,53.30
2019-06-01T12:27:02.898Z,54.40
2019-06-01T12:29:31.674Z,53.20
2019-06-01T12:32:00.811Z,56.10
2019-06-01T12:34:29.662Z,54.20
2019-06-01T12:36:58.512Z,55.40
2019-06-01T12:39:27.340Z,52.50
2019-06-01T12:41:56.117Z,56.20
2019-06-01T12:44:25.186Z,55.80
2019-06-01T12:46:53.931Z,53.80
2019-06-01T12:49:22.841Z,54.80
2019-06-01T12:51:53.033Z,54.10
2019-06-01T12:54:21.946Z,53.60
2019-06-01T12:56:50.718Z,54.00
2019-06-01T12:59:19.771Z,53.10
2019-06-01T13:01:49.298Z,52.80
2019-06-01T13:04:18.207Z,50.70
2019-06-01T13:06:51.913Z,51.00
2019-06-01T13:09:18.046Z,49.60
2019-06-01T13:11:47.391Z,48.20
2019-06-01T13:14:18.882Z,48.80
2019-06-01T13:17:02.345Z,50.30
2019-06-01T13:19:20.089Z,48.50
2019-06-01T13:21:50.174Z,51.70
2019-06-01T13:24:19.409Z,51.10
2019-06-01T13:26:48.158Z,51.10
2019-06-01T13:29:16.933Z,50.20
2019-06-01T13:31:46.149Z,47.00
2019-06-01T13:34:15.074Z,49.00
2019-06-01T13:36:44.618Z,49.70
2019-06-01T13:39:13.417Z,48.40
2019-06-01T13:41:43.017Z,47.60
2019-06-01T13:44:12.174Z,49.90
2019-06-01T13:46:43.349Z,49.80
2019-06-01T13:49:12.297Z,49.10
2019-06-01T13:51:41.030Z,46.80
2019-06-01T13:54:09.870Z,49.20
2019-06-01T13:56:38.646Z,50.20
2019-06-01T13:59:07.476Z,51.20
2019-06-01T14:01:36.208Z,49.90
2019-06-01T14:04:05.124Z,51.70
2019-06-01T14:06:34.038Z,50.60
2019-06-01T14:09:02.858Z,49.60
2019-06-01T14:11:31.615Z,50.00
2019-06-01T14:14:00.648Z,50.00
2019-06-01T14:16:29.440Z,50.00
2019-06-01T14:18:58.149Z,50.20
2019-06-01T14:21:26.964Z,48.00
2019-06-01T14:23:56.108Z,48.70
2019-06-01T14:26:25.259Z,50.20
2019-06-01T14:28:54.221Z,50.00
2019-06-01T14:31:23.041Z,48.70
2019-06-01T14:33:52.517Z,49.40
2019-06-01T14:36:21.559Z,48.10
2019-06-01T14:38:52.922Z,48.80
2019-06-01T14:41:20.873Z,50.00
2019-06-01T14:43:49.644Z,49.30
2019-06-01T14:46:18.797Z,46.20
2019-06-01T14:48:47.561Z,46.70
2019-06-01T14:51:16.301Z,48.70
2019-06-01T14:53:45.111Z,47.30
2019-06-01T14:56:13.899Z,47.00
2019-06-01T14:58:42.802Z,47.00
2019-06-01T15:01:11.767Z,46.60
2019-06-01T15:03:40.547Z,46.50
2019-06-01T15:06:09.314Z,45.80
2019-06-01T15:08:38.037Z,46.70
2019-06-01T15:11:06.841Z,45.50
2019-06-01T15:13:35.909Z,46.80
2019-06-01T15:16:04.685Z,44.80
2019-06-01T15:18:33.524Z,44.00
2019-06-01T15:21:02.319Z,44.40
2019-06-01T15:23:31.087Z,46.70
2019-06-01T15:25:59.870Z,46.70
2019-06-01T15:28:28.913Z,46.50
2019-06-01T15:30:59.166Z,45.70
2019-06-01T15:33:28.441Z,45.00
2019-06-01T15:35:57.686Z,44.20
2019-06-01T15:38:26.559Z,44.20
2019-06-01T15:40:56.178Z,43.10
2019-06-01T15:43:25.191Z,41.50
2019-06-01T15:45:55.286Z,40.00
2019-06-01T15:48:24.166Z,38.60
2019-06-01T15:50:54.451Z,37.00
2019-06-01T15:53:23.743Z,37.00
2019-06-01T15:55:52.919Z,37.20
2019-06-01T15:58:21.891Z,39.50
2019-06-01T16:00:50.602Z,36.60
2019-06-01T16:03:19.424Z,36.40
2019-06-01T16:05:48.441Z,32.60
2019-06-01T16:08:17.150Z,29.90
2019-06-01T16:10:46.679Z,30.90
2019-06-01T16:13:15.419Z,33.00
2019-06-01T16:15:44.316Z,29.70
2019-06-01T16:18:13.382Z,30.70
2019-06-01T16:20:42.139Z,29.10
2019-06-01T16:23:11.019Z,28.40
2019-06-01T16:25:40.090Z,28.00
2019-06-01T16:28:08.913Z,30.20
2019-06-01T16:30:37.694Z,29.80
2019-06-01T16:33:06.857Z,28.90
2019-06-01T16:35:35.969Z,27.70
2019-06-01T16:38:05.847Z,27.90
2019-06-01T16:40:35.041Z,29.80
2019-06-01T16:43:03.771Z,30.10
2019-06-01T16:45:33.622Z,29.60
2019-06-01T16:48:03.643Z,30.30
2019-06-01T16:50:32.870Z,29.10
2019-06-01T16:53:02.151Z,29.60
2019-06-01T16:55:31.643Z,28.00
2019-06-01T16:58:01.251Z,28.80
2019-06-01T17:00:30.216Z,29.50
2019-06-01T17:02:59.168Z,30.80
2019-06-01T17:05:27.978Z,29.50
2019-06-01T17:07:57.029Z,29.00
2019-06-01T17:10:26.803Z,31.50
2019-06-01T17:12:56.837Z,31.30
2019-06-01T17:15:26.159Z,32.50
2019-06-01T17:17:54.890Z,32.10
2019-06-01T17:20:48.116Z,31.50
2019-06-01T17:23:27.955Z,31.70
2019-06-01T17:25:48.303Z,30.00
2019-06-01T17:28:17.723Z,32.50
2019-06-01T17:30:46.518Z,32.30
2019-06-01T17:33:15.452Z,32.30
2019-06-01T17:35:44.319Z,32.80
2019-06-01T17:38:13.571Z,31.40
2019-06-01T17:40:43.627Z,34.10
2019-06-01T17:43:13.397Z,34.00
2019-06-01T17:45:42.464Z,32.60
2019-06-01T17:48:24.813Z,33.00
2019-06-01T17:50:42.456Z,34.00
2019-06-01T17:53:11.246Z,32.80
2019-06-01T17:55:40.263Z,33.80
2019-06-01T17:58:10.088Z,34.70
2019-06-01T18:00:40.190Z,34.20
2019-06-01T18:03:10.051Z,34.80
2019-06-01T18:05:39.451Z,36.10
2019-06-01T18:08:08.285Z,36.60
2019-06-01T18:10:52.577Z,36.90
2019-06-01T18:13:08.880Z,38.40
2019-06-01T18:15:38.829Z,38.10
2019-06-01T18:18:08.683Z,37.60
2019-06-01T18:20:38.039Z,38.10
2019-06-01T18:23:08.297Z,38.70
2019-06-01T18:25:37.507Z,39.20
2019-06-01T18:28:09.492Z,39.70
2019-06-01T18:30:37.909Z,40.30
2019-06-01T18:33:07.205Z,40.30
2019-06-01T18:35:36.524Z,40.40
2019-06-01T18:38:06.126Z,40.60
2019-06-01T18:40:35.241Z,42.30
2019-06-01T18:43:07.893Z,42.50
2019-06-01T18:45:37.463Z,43.10
2019-06-01T18:48:08.193Z,43.70
2019-06-01T18:50:37.236Z,44.50
2019-06-01T18:53:07.995Z,45.20
2019-06-01T18:55:36.869Z,46.20
2019-06-01T18:58:06.503Z,47.10
2019-06-01T19:00:39.321Z,47.70
2019-06-01T19:03:07.008Z,48.90
2019-06-01T19:05:36.111Z,49.00
2019-06-01T19:08:05.178Z,49.40
2019-06-01T19:10:34.259Z,49.80
2019-06-01T19:13:03.016Z,50.00
2019-06-01T19:15:32.214Z,50.20
2019-06-01T19:18:01.025Z,50.50
2019-06-01T19:20:33.049Z,51.10
2019-06-01T19:23:00.281Z,51.60
2019-06-01T19:25:29.014Z,51.90
2019-06-01T19:27:57.723Z,52.40
2019-06-01T19:30:37.919Z,52.60
2019-06-01T19:33:10.816Z,52.90
2019-06-01T19:35:39.277Z,53.90
2019-06-01T19:38:09.079Z,54.20
2019-06-01T19:40:39.659Z,54.70
2019-06-01T19:43:09.597Z,55.00
2019-06-01T19:45:38.521Z,55.60
2019-06-01T19:48:10.100Z,55.70
2019-06-01T19:50:39.238Z,56.00
2019-06-01T19:53:08.686Z,56.00
2019-06-01T19:55:39.271Z,56.10
2019-06-01T19:58:08.010Z,56.30
2019-06-01T20:00:36.716Z,56.30
2019-06-01T20:03:06.404Z,56.40
2019-06-01T20:05:35.310Z,57.00
2019-06-01T20:08:04.710Z,56.50
2019-06-01T20:10:33.694Z,56.70
2019-06-01T20:13:04.278Z,57.00
2019-06-01T20:15:33.004Z,57.20
2019-06-01T20:18:01.828Z,57.30
2019-06-01T20:20:30.564Z,57.50
2019-06-01T20:22:59.354Z,57.40
2019-06-01T20:25:28.523Z,57.30
2019-06-01T20:27:57.884Z,57.50
2019-06-01T20:30:26.874Z,57.60
2019-06-01T20:32:55.956Z,57.80
2019-06-01T20:35:24.783Z,57.90
2019-06-01T20:37:53.611Z,58.10
2019-06-01T20:40:22.577Z,58.50
2019-06-01T20:42:53.479Z,58.70
2019-06-01T20:45:22.886Z,59.10
2019-06-01T20:47:52.235Z,59.40
2019-06-01T20:50:21.039Z,60.20
2019-06-01T20:52:50.036Z,60.20
2019-06-01T20:55:19.174Z,60.70
2019-06-01T20:57:48.220Z,60.80
2019-06-01T21:00:17.841Z,61.20
2019-06-01T21:02:46.849Z,61.70
2019-06-01T21:05:15.953Z,61.90
2019-06-01T21:07:44.739Z,62.10
2019-06-01T21:10:16.176Z,62.10
2019-06-01T21:12:46.412Z,62.40
2019-06-01T21:15:17.143Z,62.40
2019-06-01T21:17:50.190Z,62.70
2019-06-01T21:20:27.839Z,62.70
2019-06-01T21:22:49.932Z,62.80
2019-06-01T21:25:20.816Z,63.30
2019-06-01T21:27:49.979Z,64.00
2019-06-01T21:30:21.027Z,64.30
2019-06-01T21:32:49.697Z,64.60
2019-06-01T21:35:19.327Z,64.60
2019-06-01T21:37:48.579Z,65.20
2019-06-01T21:40:17.840Z,65.20
2019-06-01T21:43:01.199Z,65.90
2019-06-01T21:45:17.887Z,65.60
2019-06-01T21:47:46.899Z,66.00
2019-06-01T21:50:18.176Z,66.10
2019-06-01T21:52:47.314Z,65.90
2019-06-01T21:55:18.652Z,65.70
2019-06-01T21:57:47.788Z,65.70
2019-06-01T22:00:26.546Z,66.50
2019-06-01T22:02:55.658Z,66.00
2019-06-01T22:05:25.386Z,66.40
2019-06-01T22:07:54.514Z,67.20
2019-06-01T22:10:23.294Z,66.40
2019-06-01T22:12:52.295Z,66.20
2019-06-01T22:15:21.590Z,66.20
2019-06-01T22:17:50.400Z,66.50
2019-06-01T22:20:19.946Z,66.80
2019-06-01T22:22:49.300Z,67.40
2019-06-01T22:25:18.494Z,68.00
2019-06-01T22:27:48.054Z,68.10
2019-06-01T22:30:18.343Z,68.80
2019-06-01T22:32:47.462Z,69.20
2019-06-01T22:35:16.572Z,69.20
2019-06-01T22:37:45.633Z,69.10
2019-06-01T22:40:14.618Z,69.20
2019-06-01T22:42:43.683Z,69.30
2019-06-01T22:45:12.969Z,69.70
2019-06-01T22:47:41.681Z,69.10
2019-06-01T22:50:10.689Z,69.60
2019-06-01T22:52:39.808Z,69.40
2019-06-01T22:55:08.918Z,69.60
2019-06-01T22:57:37.779Z,70.40
2019-06-01T23:00:07.378Z,69.70
2019-06-01T23:02:36.133Z,69.70
2019-06-01T23:05:05.744Z,69.50
2019-06-01T23:07:34.452Z,70.30
2019-06-01T23:10:03.325Z,69.90
2019-06-01T23:12:32.757Z,70.90
2019-06-01T23:15:01.502Z,71.60
2019-06-01T23:17:31.924Z,71.50
2019-06-01T23:20:00.881Z,72.20
2019-06-01T23:22:30.107Z,71.70
2019-06-01T23:24:58.984Z,72.40
2019-06-01T23:27:28.278Z,72.10
2019-06-01T23:29:57.435Z,72.20
2019-06-01T23:32:26.455Z,71.70
2019-06-01T23:34:55.442Z,71.70
2019-06-01T23:37:24.737Z,71.90
2019-06-01T23:39:53.920Z,72.50
2019-06-01T23:42:22.662Z,72.30
2019-06-01T23:44:51.512Z,72.80
2019-06-01T23:47:20.279Z,72.40
2019-06-01T23:49:49.419Z,73.30
2019-06-01T23:52:18.202Z,72.80
2019-06-01T23:54:46.948Z,73.00
2019-06-01T23:57:15.711Z,73.10
2019-06-01T23:59:44.414Z,75.50
